Time;durP1;ratioP1;P1;durP2;ratioP2;P2;SDS_P1;SDS_P2;PMS_P1;PMS_P2;Temp;Humidity;BMP_temperature;BMP_pressure;BME280_temperature;BME280_humidity;BME280_pressure;Samples;Min_cycle;Max_cycle;Signal;HPM_P1;HPM_P2
2022/10/27 00:00:02;;;;;;;10.60;9.60;;;12.30;99.90;;;;;;5045034;28;20470;-82
2022/10/27 00:02:29;;;;;;;10.17;7.90;;;12.30;99.90;;;;;;5043553;28;20439;-82
2022/10/27 00:04:55;;;;;;;9.30;8.00;;;12.30;99.90;;;;;;5043485;28;20508;-82
2022/10/27 00:07:22;;;;;;;14.50;8.40;;;12.30;99.90;;;;;;5044696;28;20450;-82
2022/10/27 00:09:49;;;;;;;11.47;8.70;;;12.30;99.90;;;;;;5045436;28;20445;-81
2022/10/27 00:12:15;;;;;;;11.43;8.93;;;12.30;99.90;;;;;;5041744;28;20536;-82
2022/10/27 00:14:43;;;;;;;11.57;7.73;;;12.20;99.90;;;;;;5041097;28;20553;-82
2022/10/27 00:17:10;;;;;;;9.53;8.63;;;12.20;99.90;;;;;;5040399;28;20446;-82
2022/10/27 00:19:36;;;;;;;11.93;8.77;;;12.20;99.90;;;;;;5048090;28;20462;-81
2022/10/27 00:22:03;;;;;;;10.33;9.37;;;12.20;99.90;;;;;;5049641;28;20447;-82
2022/10/27 00:24:30;;;;;;;10.67;8.87;;;12.20;99.90;;;;;;5046565;28;20500;-82
2022/10/27 00:26:56;;;;;;;9.90;8.90;;;12.20;99.90;;;;;;5044810;28;20450;-82
2022/10/27 00:31:53;;;;;;;13.73;10.00;;;12.10;99.90;;;;;;5064498;23;21013;-82
2022/10/27 00:34:19;;;;;;;9.47;8.17;;;12.10;99.90;;;;;;5050027;28;20968;-82
2022/10/27 00:36:46;;;;;;;14.43;9.67;;;12.10;99.90;;;;;;5049771;28;20438;-82
2022/10/27 00:39:13;;;;;;;12.03;8.70;;;12.10;99.90;;;;;;5048518;28;20438;-81
2022/10/27 00:41:41;;;;;;;8.93;8.03;;;12.10;99.90;;;;;;5048031;28;20438;-82
2022/10/27 00:44:30;;;;;;;9.93;8.97;;;12.10;99.90;;;;;;5048919;28;20414;-82
2022/10/27 00:47:01;;;;;;;10.77;8.57;;;12.10;99.90;;;;;;5048179;28;20447;-82
2022/10/27 00:49:32;;;;;;;14.93;8.60;;;11.80;99.90;;;;;;5048609;28;20841;-81
2022/10/27 00:52:02;;;;;;;11.90;9.60;;;12.00;99.90;;;;;;5051763;28;20470;-81
2022/10/27 00:54:32;;;;;;;14.93;8.50;;;12.00;99.90;;;;;;5057529;28;20411;-81
2022/10/27 00:56:59;;;;;;;10.17;8.77;;;12.00;99.90;;;;;;5056622;28;20411;-82
2022/10/27 00:59:26;;;;;;;9.70;7.93;;;12.00;99.90;;;;;;5054597;28;20447;-82
2022/10/27 01:01:53;;;;;;;9.50;8.20;;;12.00;99.90;;;;;;5050588;28;20486;-82
2022/10/27 01:04:35;;;;;;;8.63;7.80;;;12.10;99.90;;;;;;5050315;28;20447;-82
2022/10/27 01:07:02;;;;;;;8.57;7.53;;;12.10;99.90;;;;;;5051036;28;20438;-81
2022/10/27 01:09:30;;;;;;;9.50;7.07;;;11.90;99.90;;;;;;5049033;28;20447;-81
2022/10/27 01:11:56;;;;;;;10.27;7.23;;;12.00;99.90;;;;;;5047876;28;20972;-81
2022/10/27 01:14:23;;;;;;;8.43;7.13;;;12.00;99.90;;;;;;5047615;28;20425;-80
2022/10/27 01:17:00;;;;;;;7.67;6.93;;;12.00;99.90;;;;;;5047891;28;20447;-82
2022/10/27 01:19:54;;;;;;;7.97;6.83;;;12.00;99.90;;;;;;5044265;28;20438;-82
2022/10/27 01:22:29;;;;;;;9.50;7.80;;;11.90;99.90;;;;;;5054324;28;20433;-82
2022/10/27 01:25:24;;;;;;;7.40;6.70;;;12.00;99.90;;;;;;5055045;28;20401;-82
2022/10/27 01:28:36;;;;;;;7.73;7.00;;;11.90;99.90;;;;;;5046679;28;20469;-81
2022/10/27 01:31:09;;;;;;;8.83;8.03;;;11.90;99.90;;;;;;5047118;28;20445;-80
2022/10/27 01:33:43;;;;;;;9.60;8.30;;;11.60;99.90;;;;;;5047317;28;21099;-83
2022/10/27 01:36:15;;;;;;;12.70;8.60;;;11.90;99.90;;;;;;5046608;28;20457;-82
2022/10/27 01:38:48;;;;;;;7.67;6.70;;;11.90;99.90;;;;;;5047196;28;20462;-83
2022/10/27 01:41:20;;;;;;;13.03;8.30;;;12.10;99.90;;;;;;5047686;28;20476;-82
2022/10/27 01:43:50;;;;;;;8.87;7.50;;;11.90;99.90;;;;;;5047178;28;20434;-81
2022/10/27 01:46:19;;;;;;;9.37;7.37;;;11.80;99.90;;;;;;5047021;28;20456;-82
2022/10/27 01:48:46;;;;;;;8.83;7.60;;;11.80;99.90;;;;;;5044012;28;20450;-82
2022/10/27 01:51:14;;;;;;;8.33;7.53;;;11.80;99.90;;;;;;5047816;28;20469;-82
2022/10/27 01:53:44;;;;;;;9.37;7.70;;;11.80;99.90;;;;;;5047264;28;20450;-82
2022/10/27 01:56:35;;;;;;;9.20;7.40;;;11.80;99.90;;;;;;5048700;28;20426;-82
2022/10/27 01:59:14;;;;;;;7.10;6.40;;;11.80;99.90;;;;;;5053691;28;20472;-82
2022/10/27 02:01:50;;;;;;;10.50;8.60;;;11.80;99.90;;;;;;5052322;28;20980;-81
2022/10/27 02:04:25;;;;;;;9.63;8.37;;;11.70;99.90;;;;;;5051252;28;20434;-80
2022/10/27 02:06:59;;;;;;;13.93;7.93;;;11.70;99.90;;;;;;5052365;28;20430;-80
2022/10/27 02:09:35;;;;;;;12.30;8.20;;;11.70;99.90;;;;;;5051772;28;20427;-80
2022/10/27 02:12:07;;;;;;;9.67;8.63;;;11.70;99.90;;;;;;5047060;28;20435;-81
2022/10/27 02:14:35;;;;;;;10.27;7.43;;;11.70;99.90;;;;;;5047050;28;20431;-82
2022/10/27 02:17:05;;;;;;;12.93;8.07;;;11.70;99.90;;;;;;5047369;28;20446;-82
2022/10/27 02:19:35;;;;;;;10.40;7.60;;;11.70;99.90;;;;;;5042870;28;20406;-80
2022/10/27 02:22:03;;;;;;;11.03;8.60;;;11.70;99.90;;;;;;5046222;28;20438;-82
2022/10/27 02:24:30;;;;;;;12.83;8.23;;;11.70;99.90;;;;;;5047157;28;20443;-81
2022/10/27 02:27:01;;;;;;;10.27;8.47;;;11.70;99.90;;;;;;5046317;28;20421;-82
2022/10/27 02:29:32;;;;;;;9.00;8.17;;;11.80;99.90;;;;;;5047268;28;20466;-82
2022/10/27 02:32:04;;;;;;;8.87;8.07;;;11.60;99.90;;;;;;5048856;28;20431;-81
2022/10/27 02:34:32;;;;;;;11.90;8.83;;;11.70;99.90;;;;;;5047477;28;20467;-81
2022/10/27 02:36:59;;;;;;;12.37;8.67;;;11.80;99.90;;;;;;5043457;28;20469;-82
2022/10/27 02:39:26;;;;;;;9.60;8.60;;;11.70;99.90;;;;;;5047022;28;20447;-82
2022/10/27 02:41:53;;;;;;;9.30;8.40;;;11.30;99.90;;;;;;5048453;28;20482;-81
2022/10/27 02:44:19;;;;;;;11.30;8.00;;;11.60;99.90;;;;;;5044086;28;20537;-80
2022/10/27 02:46:46;;;;;;;8.47;7.67;;;11.60;99.90;;;;;;5044969;28;20496;-81
2022/10/27 02:49:14;;;;;;;10.93;8.37;;;11.60;99.90;;;;;;5046292;28;20749;-80
2022/10/27 02:51:41;;;;;;;10.43;8.30;;;11.60;99.90;;;;;;5049493;28;20474;-80
2022/10/27 02:54:07;;;;;;;11.43;8.40;;;11.60;99.90;;;;;;5049772;28;20482;-80
2022/10/27 02:56:34;;;;;;;11.27;9.17;;;11.60;99.90;;;;;;5049269;28;20428;-81
2022/10/27 02:59:01;;;;;;;9.30;7.83;;;11.60;99.90;;;;;;5049540;28;20425;-81
2022/10/27 03:01:27;;;;;;;9.43;8.43;;;11.60;99.90;;;;;;5050207;28;20438;-81
2022/10/27 03:03:54;;;;;;;11.97;8.83;;;11.60;99.90;;;;;;5054739;28;20439;-80
2022/10/27 03:06:22;;;;;;;10.43;8.60;;;11.50;99.90;;;;;;5054211;28;20554;-81
2022/10/27 03:08:48;;;;;;;9.70;8.70;;;11.60;99.90;;;;;;5052390;28;20444;-81
2022/10/27 03:11:15;;;;;;;12.70;8.40;;;11.60;99.90;;;;;;5042250;28;20489;-80
2022/10/27 03:13:42;;;;;;;13.80;11.67;;;11.60;99.90;;;;;;5041919;28;20486;-80
2022/10/27 03:16:08;;;;;;;9.83;8.57;;;11.60;99.90;;;;;;5039986;28;20451;-80
2022/10/27 03:18:35;;;;;;;10.20;9.17;;;11.60;99.90;;;;;;5039494;28;20450;-81
2022/10/27 03:21:02;;;;;;;10.63;8.80;;;11.60;99.90;;;;;;5041798;28;20520;-81
2022/10/27 03:23:30;;;;;;;12.83;9.87;;;11.60;99.90;;;;;;5043603;28;20454;-81
2022/10/27 03:25:56;;;;;;;9.37;8.40;;;11.50;99.90;;;;;;5044459;28;20410;-80
2022/10/27 03:28:23;;;;;;;15.30;9.10;;;11.50;99.90;;;;;;5045836;28;20509;-81
2022/10/27 03:30:50;;;;;;;14.83;9.37;;;11.50;99.90;;;;;;5047375;28;20486;-80
2022/10/27 03:33:16;;;;;;;12.87;10.20;;;11.50;99.90;;;;;;5047943;28;21012;-81
2022/10/27 03:35:43;;;;;;;11.83;9.87;;;11.50;99.90;;;;;;5048499;28;20461;-81
2022/10/27 03:38:11;;;;;;;13.97;9.50;;;11.50;99.90;;;;;;5048227;28;20679;-80
2022/10/27 03:40:39;;;;;;;10.60;8.67;;;11.50;99.90;;;;;;5048307;28;20441;-80
2022/10/27 03:43:06;;;;;;;10.17;9.13;;;11.50;99.90;;;;;;5049236;28;20435;-80
2022/10/27 03:45:33;;;;;;;16.63;9.27;;;11.60;99.90;;;;;;5050890;28;20455;-81
2022/10/27 03:48:01;;;;;;;9.33;8.47;;;11.60;99.90;;;;;;5051699;28;20514;-79
2022/10/27 03:50:28;;;;;;;9.63;8.50;;;11.50;99.90;;;;;;5050609;28;20462;-79
2022/10/27 03:52:54;;;;;;;11.40;7.80;;;11.50;99.90;;;;;;5052129;28;20479;-81
2022/10/27 03:55:21;;;;;;;13.70;8.03;;;11.50;99.90;;;;;;5045243;28;20427;-81
2022/10/27 03:57:50;;;;;;;11.90;9.90;;;11.50;99.90;;;;;;5059499;28;20473;-80
2022/10/27 04:00:17;;;;;;;11.97;10.03;;;11.50;99.90;;;;;;5060079;28;20490;-81
2022/10/27 04:02:44;;;;;;;16.80;10.17;;;11.50;99.90;;;;;;5055946;28;20443;-82
2022/10/27 04:05:10;;;;;;;10.70;9.00;;;11.50;99.90;;;;;;5050024;28;20447;-82
2022/10/27 04:07:37;;;;;;;15.00;9.10;;;11.50;99.90;;;;;;5049508;28;20454;-80
2022/10/27 04:10:05;;;;;;;12.53;9.17;;;11.50;99.90;;;;;;5048959;28;20470;-81
2022/10/27 04:12:32;;;;;;;11.97;9.93;;;11.40;99.90;;;;;;5049255;28;20429;-82
2022/10/27 04:15:00;;;;;;;13.10;9.73;;;11.40;99.90;;;;;;5050152;28;20548;-81
2022/10/27 04:17:29;;;;;;;13.97;10.07;;;11.40;99.90;;;;;;5049579;28;21019;-81
2022/10/27 04:19:55;;;;;;;12.60;9.30;;;11.40;99.90;;;;;;5049456;28;20992;-81
2022/10/27 04:22:22;;;;;;;10.47;9.30;;;11.40;99.90;;;;;;5050650;28;20497;-80
2022/10/27 04:24:49;;;;;;;18.23;10.07;;;11.40;99.90;;;;;;5051882;28;20454;-80
2022/10/27 04:27:15;;;;;;;14.57;10.90;;;11.40;99.90;;;;;;5052800;28;20501;-80
2022/10/27 04:29:42;;;;;;;10.17;8.87;;;11.80;99.90;;;;;;5051533;28;20454;-80
2022/10/27 04:32:10;;;;;;;11.03;9.23;;;11.50;99.90;;;;;;5052325;28;20442;-81
2022/10/27 04:34:36;;;;;;;12.97;10.30;;;11.40;99.90;;;;;;5052115;28;20489;-81
2022/10/27 04:37:03;;;;;;;12.47;9.60;;;11.30;99.90;;;;;;5051260;28;20449;-80
2022/10/27 04:39:30;;;;;;;13.90;9.50;;;11.10;99.90;;;;;;5051635;28;20451;-80
2022/10/27 04:41:56;;;;;;;13.30;9.70;;;11.40;99.90;;;;;;5051309;28;20868;-80
2022/10/27 04:44:23;;;;;;;11.17;9.70;;;11.30;99.90;;;;;;5057713;28;20438;-81
2022/10/27 04:46:50;;;;;;;13.30;10.63;;;11.30;99.90;;;;;;5056403;28;20435;-82
2022/10/27 04:49:18;;;;;;;16.70;10.87;;;11.40;99.90;;;;;;5049744;28;20446;-82
2022/10/27 04:51:44;;;;;;;12.53;9.93;;;11.40;99.90;;;;;;5048665;28;20445;-82
2022/10/27 04:54:11;;;;;;;14.20;11.37;;;11.40;99.90;;;;;;5047822;28;20448;-81
2022/10/27 04:56:38;;;;;;;17.70;10.53;;;11.30;99.90;;;;;;5048792;28;20504;-83
2022/10/27 04:59:04;;;;;;;17.23;11.20;;;11.30;99.90;;;;;;5045175;28;20450;-80
2022/10/27 05:01:31;;;;;;;13.53;9.70;;;11.30;99.90;;;;;;5043893;28;20474;-81
2022/10/27 05:03:58;;;;;;;12.80;10.87;;;11.30;99.90;;;;;;5043803;28;20447;-81
2022/10/27 05:06:26;;;;;;;14.80;10.20;;;11.40;99.90;;;;;;5043394;28;20442;-82
2022/10/27 05:08:53;;;;;;;12.80;9.43;;;11.30;99.90;;;;;;5048184;28;20794;-82
2022/10/27 05:11:19;;;;;;;14.13;10.67;;;11.40;99.90;;;;;;5047084;28;20463;-83
2022/10/27 05:13:49;;;;;;;12.50;11.03;;;11.40;99.90;;;;;;5041563;28;20489;-82
2022/10/27 05:16:16;;;;;;;13.33;10.33;;;11.40;99.90;;;;;;5048069;28;20473;-82
2022/10/27 05:18:42;;;;;;;16.73;10.30;;;11.60;99.90;;;;;;5048192;28;20425;-80
2022/10/27 05:21:09;;;;;;;11.60;9.50;;;11.40;99.90;;;;;;5047658;28;20444;-80
2022/10/27 05:23:37;;;;;;;15.00;10.40;;;11.40;99.90;;;;;;5047388;28;20417;-81
2022/10/27 05:26:04;;;;;;;14.67;10.20;;;11.30;99.90;;;;;;5050484;28;20425;-81
2022/10/27 05:28:31;;;;;;;12.90;11.03;;;11.40;99.90;;;;;;5048712;28;20453;-81
2022/10/27 05:30:58;;;;;;;13.27;10.77;;;11.40;99.90;;;;;;5047432;28;20449;-81
2022/10/27 05:33:25;;;;;;;20.03;11.10;;;11.40;99.90;;;;;;5047346;28;20543;-81
2022/10/27 05:35:53;;;;;;;16.73;10.83;;;11.40;99.90;;;;;;5048060;28;20493;-81
2022/10/27 05:38:21;;;;;;;17.43;10.47;;;11.50;99.90;;;;;;5047443;28;20446;-81
2022/10/27 05:40:54;;;;;;;15.83;11.20;;;11.50;99.90;;;;;;5046938;28;20815;-82
2022/10/27 05:43:21;;;;;;;12.53;10.17;;;11.50;99.90;;;;;;5047348;28;20434;-81
2022/10/27 05:45:48;;;;;;;14.03;10.67;;;11.50;99.90;;;;;;5046970;28;20425;-81
2022/10/27 05:48:14;;;;;;;16.47;9.70;;;11.50;99.90;;;;;;5047041;28;20477;-81
2022/10/27 05:50:41;;;;;;;14.17;10.73;;;11.50;99.90;;;;;;5047446;28;20485;-81
2022/10/27 05:53:08;;;;;;;13.87;11.13;;;11.50;99.90;;;;;;5041692;28;20561;-82
2022/10/27 05:55:35;;;;;;;14.53;12.60;;;11.50;99.90;;;;;;5046766;28;20482;-82
2022/10/27 05:58:04;;;;;;;14.20;12.40;;;11.40;99.90;;;;;;5047251;28;20442;-81
2022/10/27 06:00:33;;;;;;;14.30;11.80;;;11.40;99.90;;;;;;5043066;28;20464;-81
2022/10/27 06:03:02;;;;;;;14.47;11.40;;;11.40;99.90;;;;;;5042847;28;20437;-82
2022/10/27 06:05:30;;;;;;;17.40;10.27;;;11.40;99.90;;;;;;5046952;28;20476;-82
2022/10/27 06:07:57;;;;;;;15.97;13.03;;;11.40;99.90;;;;;;5046787;28;20473;-82
2022/10/27 06:10:24;;;;;;;14.53;12.23;;;11.40;99.90;;;;;;5047147;28;20473;-82
2022/10/27 06:12:51;;;;;;;18.87;12.87;;;11.40;99.90;;;;;;5041732;28;20846;-81
2022/10/27 06:15:19;;;;;;;14.40;11.13;;;11.40;99.90;;;;;;5040902;28;20530;-82
2022/10/27 06:17:51;;;;;;;18.77;12.70;;;11.40;99.90;;;;;;5041557;28;20417;-82
2022/10/27 06:20:18;;;;;;;18.03;12.70;;;11.50;99.90;;;;;;5047178;28;20466;-82
2022/10/27 06:22:46;;;;;;;17.27;11.83;;;11.70;99.90;;;;;;5046778;28;20508;-82
2022/10/27 06:25:13;;;;;;;17.60;12.10;;;11.80;99.90;;;;;;5048944;28;20446;-81
2022/10/27 06:27:39;;;;;;;13.43;12.07;;;11.50;99.90;;;;;;5050552;28;20454;-81
2022/10/27 06:30:07;;;;;;;31.70;19.27;;;11.50;99.90;;;;;;5063427;23;20597;-81
2022/10/27 06:32:38;;;;;;;23.17;11.47;;;11.50;99.90;;;;;;5028156;28;20478;-82
2022/10/27 06:35:06;;;;;;;18.23;12.37;;;11.50;99.90;;;;;;5025887;28;20479;-83
2022/10/27 06:37:33;;;;;;;16.87;12.33;;;11.50;99.90;;;;;;5025046;28;20456;-83
2022/10/27 06:39:59;;;;;;;15.27;11.93;;;11.60;99.90;;;;;;5029352;28;20450;-82
2022/10/27 06:42:26;;;;;;;13.00;11.60;;;11.50;99.90;;;;;;5033196;28;20435;-82
2022/10/27 06:44:53;;;;;;;14.70;12.37;;;11.80;99.90;;;;;;5031493;28;20447;-83
2022/10/27 06:47:19;;;;;;;15.50;11.80;;;11.60;99.90;;;;;;5034190;28;20458;-82
2022/10/27 06:49:47;;;;;;;16.47;13.30;;;11.60;99.90;;;;;;5032598;28;20506;-83
2022/10/27 06:52:14;;;;;;;19.53;13.37;;;11.60;99.90;;;;;;5032046;28;20448;-82
2022/10/27 06:54:42;;;;;;;20.33;11.97;;;11.60;99.90;;;;;;5031023;28;20450;-82
2022/10/27 06:57:09;;;;;;;16.87;11.77;;;11.60;99.90;;;;;;5028947;28;20447;-83
2022/10/27 06:59:36;;;;;;;17.13;11.90;;;11.70;99.90;;;;;;5028505;28;20447;-82
2022/10/27 07:02:03;;;;;;;13.47;12.07;;;11.70;99.90;;;;;;5032029;28;20892;-82
2022/10/27 07:04:30;;;;;;;12.97;10.50;;;11.70;99.90;;;;;;5033454;28;20425;-82
2022/10/27 07:06:58;;;;;;;15.20;11.13;;;11.80;99.90;;;;;;5035046;28;20453;-82
2022/10/27 07:09:25;;;;;;;15.90;11.17;;;11.80;99.90;;;;;;5035428;28;20443;-82
2022/10/27 07:11:51;;;;;;;15.63;12.07;;;11.80;99.90;;;;;;5035013;28;20445;-82
2022/10/27 07:14:18;;;;;;;14.00;10.70;;;11.80;99.90;;;;;;5033242;28;20490;-82
2022/10/27 07:16:45;;;;;;;12.37;10.47;;;11.90;99.90;;;;;;5032462;28;20474;-82
2022/10/27 07:19:11;;;;;;;15.17;11.60;;;11.90;99.90;;;;;;5024970;28;20451;-83
2022/10/27 07:21:38;;;;;;;11.57;10.47;;;12.00;99.90;;;;;;5024044;28;20449;-82
2022/10/27 07:24:07;;;;;;;15.50;10.27;;;12.00;99.90;;;;;;5023734;28;20418;-82
2022/10/27 07:26:34;;;;;;;20.80;12.20;;;12.10;99.90;;;;;;5022849;28;20440;-81
2022/10/27 07:29:01;;;;;;;13.63;10.70;;;12.10;99.90;;;;;;5021646;28;20455;-81
2022/10/27 07:31:27;;;;;;;13.23;11.73;;;12.10;99.90;;;;;;5021723;28;20479;-81
2022/10/27 07:33:54;;;;;;;22.60;12.03;;;12.20;99.90;;;;;;5021913;28;20505;-81
2022/10/27 07:36:20;;;;;;;13.10;11.77;;;12.20;99.90;;;;;;5021882;28;20448;-82
2022/10/27 07:38:47;;;;;;;13.57;11.40;;;12.30;99.90;;;;;;5020649;28;20451;-81
2022/10/27 07:41:15;;;;;;;17.67;12.43;;;12.30;99.90;;;;;;5022160;28;20482;-85
2022/10/27 07:43:42;;;;;;;13.33;11.10;;;12.70;99.90;;;;;;5022266;28;20988;-84
2022/10/27 07:46:14;;;;;;;16.97;13.10;;;12.40;99.90;;;;;;5026760;28;20506;-83
2022/10/27 07:48:44;;;;;;;22.30;11.40;;;12.50;99.90;;;;;;5031977;28;20437;-83
2022/10/27 07:51:11;;;;;;;14.30;11.00;;;12.60;99.90;;;;;;5037562;28;20527;-82
2022/10/27 07:53:37;;;;;;;11.90;10.80;;;12.70;99.90;;;;;;5036066;28;20448;-83
2022/10/27 07:56:05;;;;;;;11.13;9.73;;;12.70;99.90;;;;;;5032668;28;20514;-83
2022/10/27 07:58:33;;;;;;;15.43;10.93;;;12.90;99.90;;;;;;5028491;28;20426;-88
2022/10/27 08:01:02;;;;;;;14.80;10.90;;;13.00;99.90;;;;;;5023795;28;20463;-84
2022/10/27 08:03:30;;;;;;;11.50;10.33;;;13.00;99.90;;;;;;5026266;28;20519;-84
2022/10/27 08:06:01;;;;;;;9.97;8.97;;;13.20;99.90;;;;;;5026414;28;20471;-81
2022/10/27 08:08:29;;;;;;;11.23;9.10;;;13.80;99.90;;;;;;5027028;28;20443;-84
2022/10/27 08:10:55;;;;;;;10.37;9.37;;;13.70;99.90;;;;;;5029538;28;20422;-83
2022/10/27 08:13:22;;;;;;;15.33;11.07;;;13.60;99.90;;;;;;5027773;28;20452;-83
2022/10/27 08:15:51;;;;;;;22.17;11.37;;;13.50;99.90;;;;;;5035973;28;20482;-82
2022/10/27 08:18:17;;;;;;;12.53;11.33;;;13.50;99.90;;;;;;5026988;28;20444;-83
2022/10/27 08:20:46;;;;;;;17.50;14.27;;;13.60;99.90;;;;;;5024475;28;20487;-83
2022/10/27 08:23:15;;;;;;;17.63;13.33;;;13.50;99.90;;;;;;5024033;28;20448;-84
2022/10/27 08:25:42;;;;;;;14.20;11.67;;;13.50;99.90;;;;;;5023761;28;20422;-84
2022/10/27 08:28:10;;;;;;;13.90;10.60;;;13.50;99.90;;;;;;5024644;28;20437;-84
2022/10/27 08:30:50;;;;;;;12.30;11.00;;;13.60;99.90;;;;;;5024297;28;20475;-84
2022/10/27 08:33:19;;;;;;;12.30;9.80;;;13.70;99.90;;;;;;5024506;28;20424;-85
2022/10/27 08:35:46;;;;;;;12.17;10.90;;;;;;;;;;5025034;28;20482;-85
2022/10/27 08:38:15;;;;;;;14.77;10.73;;;13.70;99.90;;;;;;5025078;28;20463;-85
2022/10/27 08:40:51;;;;;;;15.07;11.27;;;13.70;99.90;;;;;;5024085;28;20472;-84
2022/10/27 08:44:05;;;;;;;11.57;9.30;;;13.80;99.90;;;;;;5021441;28;20439;-90
2022/10/27 08:46:39;;;;;;;10.20;9.20;;;13.90;99.90;;;;;;4958352;29;20450;-82
2022/10/27 08:49:14;;;;;;;11.17;9.60;;;13.90;99.90;;;;;;5015569;28;20447;-83
2022/10/27 08:51:43;;;;;;;10.10;9.10;;;14.00;99.90;;;;;;5020649;28;20445;-85
2022/10/27 08:54:11;;;;;;;14.63;9.97;;;14.10;99.90;;;;;;5034131;28;20440;-86
2022/10/27 08:56:42;;;;;;;12.70;9.50;;;13.90;99.90;;;;;;5022131;28;20455;-83
2022/10/27 08:59:15;;;;;;;12.90;10.37;;;14.60;99.90;;;;;;5020715;28;20443;-82
2022/10/27 09:01:47;;;;;;;12.67;9.20;;;14.30;99.90;;;;;;5020854;28;20454;-81
2022/10/27 09:04:28;;;;;;;16.57;10.40;;;14.40;99.90;;;;;;5020486;28;20950;-84
2022/10/27 09:07:06;;;;;;;11.90;10.07;;;14.40;99.90;;;;;;5018866;28;20410;-86
2022/10/27 09:09:41;;;;;;;13.37;9.13;;;14.50;99.90;;;;;;5017674;28;20432;-87
2022/10/27 09:12:19;;;;;;;10.33;9.33;;;14.60;99.90;;;;;;5017510;28;20449;-86
2022/10/27 09:15:03;;;;;;;10.57;8.90;;;14.70;99.90;;;;;;5017078;28;20467;-89
2022/10/27 09:17:35;;;;;;;14.33;9.90;;;14.80;99.90;;;;;;5018133;28;20402;-86
2022/10/27 09:20:15;;;;;;;11.80;9.73;;;14.60;99.90;;;;;;5019306;28;20472;-85
2022/10/27 09:22:42;;;;;;;9.20;8.30;;;15.00;99.90;;;;;;5017824;28;20440;-87
2022/10/27 09:25:16;;;;;;;9.40;8.30;;;15.00;99.90;;;;;;5018053;28;20434;-87
2022/10/27 09:27:45;;;;;;;9.53;7.57;;;15.10;99.90;;;;;;5026304;28;20432;-87
2022/10/27 09:30:13;;;;;;;8.83;7.93;;;15.50;99.90;;;;;;5037179;28;20470;-85
2022/10/27 09:32:42;;;;;;;12.53;9.37;;;15.20;99.90;;;;;;5034874;28;20440;-87
2022/10/27 09:35:13;;;;;;;9.77;8.77;;;15.20;99.90;;;;;;5017050;28;20487;-86
2022/10/27 09:37:41;;;;;;;11.43;10.17;;;15.30;99.90;;;;;;5017806;28;20439;-86
2022/10/27 09:40:12;;;;;;;9.37;8.40;;;14.90;99.90;;;;;;5018416;28;20466;-86
2022/10/27 09:42:39;;;;;;;9.90;9.00;;;;;;;;;;5018414;28;20436;-86
2022/10/27 09:45:14;;;;;;;17.70;12.97;;;15.90;99.90;;;;;;5018160;28;20452;-86
2022/10/27 09:47:42;;;;;;;13.40;12.03;;;15.40;99.90;;;;;;5020786;28;20442;-85
2022/10/27 09:50:18;;;;;;;19.53;14.70;;;15.60;99.90;;;;;;5026448;28;20526;-83
2022/10/27 09:52:45;;;;;;;16.50;12.37;;;15.70;99.90;;;;;;5031807;28;20431;-84
2022/10/27 09:55:11;;;;;;;11.27;10.07;;;16.20;99.90;;;;;;5031575;28;20479;-84
2022/10/27 09:57:40;;;;;;;11.80;9.33;;;15.90;99.90;;;;;;5023270;28;20569;-86
2022/10/27 10:00:23;;;;;;;11.80;9.90;;;15.80;99.90;;;;;;5019313;28;20451;-87
2022/10/27 10:02:58;;;;;;;10.67;9.57;;;16.00;99.90;;;;;;5022396;28;20471;-86
2022/10/27 10:05:28;;;;;;;9.80;8.10;;;15.90;99.90;;;;;;5022033;28;20427;-86
2022/10/27 10:08:13;;;;;;;10.83;7.43;;;15.90;99.90;;;;;;5025251;28;20416;-85
2022/10/27 10:10:55;;;;;;;10.20;8.30;;;16.20;99.90;;;;;;5026885;28;20518;-86
2022/10/27 10:13:23;;;;;;;7.77;7.00;;;16.20;99.90;;;;;;5026482;28;20534;-84
2022/10/27 10:16:06;;;;;;;10.87;7.70;;;16.30;99.90;;;;;;5022799;28;21021;-84
2022/10/27 10:18:34;;;;;;;11.13;8.40;;;16.50;99.90;;;;;;5020254;28;20427;-84
2022/10/27 10:21:04;;;;;;;9.70;7.70;;;16.60;99.90;;;;;;5020117;28;20494;-83
2022/10/27 10:23:34;;;;;;;8.97;8.00;;;16.60;99.90;;;;;;5028742;28;20440;-83
2022/10/27 10:26:03;;;;;;;15.53;8.23;;;16.70;99.90;;;;;;5033938;28;20444;-85
2022/10/27 10:28:34;;;;;;;10.20;7.60;;;16.80;99.90;;;;;;5038329;28;20623;-85
2022/10/27 10:31:04;;;;;;;11.97;7.53;;;16.90;99.90;;;;;;5032850;28;20479;-85
2022/10/27 10:33:34;;;;;;;10.07;7.30;;;17.00;99.90;;;;;;5032002;28;20455;-85
2022/10/27 10:36:18;;;;;;;10.27;7.63;;;17.20;99.90;;;;;;5026995;28;20468;-85
2022/10/27 10:38:50;;;;;;;8.77;6.57;;;17.20;99.90;;;;;;5039426;28;20473;-85
2022/10/27 10:41:20;;;;;;;10.23;6.80;;;17.20;99.90;;;;;;5040216;28;20459;-85
2022/10/27 10:44:08;;;;;;;9.73;6.87;;;17.10;99.90;;;;;;5035160;28;20447;-85
2022/10/27 10:46:38;;;;;;;13.20;7.43;;;17.20;99.90;;;;;;5031896;28;20430;-85
2022/10/27 10:49:14;;;;;;;6.87;6.27;;;17.20;99.90;;;;;;5028496;28;20448;-85
2022/10/27 10:51:42;;;;;;;8.47;6.30;;;17.20;99.90;;;;;;5033785;28;20467;-85
2022/10/27 10:54:18;;;;;;;12.30;7.30;;;17.40;99.90;;;;;;5033739;28;20458;-85
2022/10/27 10:56:52;;;;;;;9.00;5.93;;;17.30;99.90;;;;;;5031382;28;20480;-85
2022/10/27 10:59:22;;;;;;;6.67;5.80;;;17.30;99.90;;;;;;5031058;28;20461;-85
2022/10/27 11:01:56;;;;;;;7.03;5.30;;;17.30;99.90;;;;;;5024448;28;20471;-85
2022/10/27 11:04:26;;;;;;;5.60;5.17;;;17.40;99.90;;;;;;5026337;28;20431;-84
2022/10/27 11:07:04;;;;;;;5.93;5.10;;;17.40;99.90;;;;;;5026304;28;20454;-85
2022/10/27 11:09:36;;;;;;;8.40;6.17;;;17.60;99.90;;;;;;5022317;28;20470;-85
2022/10/27 11:12:05;;;;;;;5.80;5.00;;;17.40;99.90;;;;;;5019263;28;20483;-85
2022/10/27 11:14:33;;;;;;;13.03;5.10;;;17.40;99.90;;;;;;5020441;28;20447;-86
2022/10/27 11:17:03;;;;;;;7.40;5.33;;;17.50;99.90;;;;;;5020604;28;20568;-82
2022/10/27 11:19:33;;;;;;;9.03;6.10;;;17.50;99.90;;;;;;5020638;28;20427;-84
2022/10/27 11:22:05;;;;;;;7.03;5.40;;;17.50;99.90;;;;;;5019579;28;20479;-85
2022/10/27 11:24:47;;;;;;;6.97;4.97;;;17.50;99.90;;;;;;5022072;28;20435;-82
2022/10/27 11:27:17;;;;;;;8.10;5.57;;;17.50;99.90;;;;;;5021029;28;20478;-83
2022/10/27 11:29:51;;;;;;;8.00;5.80;;;17.60;99.90;;;;;;5021428;28;20804;-85
2022/10/27 11:32:24;;;;;;;9.63;5.70;;;17.60;99.90;;;;;;5021143;28;20513;-83
2022/10/27 11:35:03;;;;;;;7.07;5.00;;;17.50;99.90;;;;;;5019241;28;20448;-84
2022/10/27 11:37:37;;;;;;;7.20;5.60;;;17.60;99.90;;;;;;5019478;28;20419;-85
2022/10/27 11:40:13;;;;;;;8.73;5.00;;;18.00;99.90;;;;;;5019348;28;20424;-84
2022/10/27 11:42:47;;;;;;;6.23;5.30;;;17.30;99.90;;;;;;5019891;28;20454;-84
2022/10/27 11:45:20;;;;;;;5.87;4.60;;;17.70;99.90;;;;;;5029603;28;20427;-85
2022/10/27 11:47:50;;;;;;;8.80;5.67;;;17.70;99.90;;;;;;5036620;28;20436;-85
2022/10/27 11:50:27;;;;;;;8.50;5.70;;;17.80;99.90;;;;;;5036168;28;20460;-85
2022/10/27 11:52:59;;;;;;;6.00;5.50;;;17.80;99.90;;;;;;5036517;28;20436;-84
2022/10/27 11:55:31;;;;;;;9.90;6.50;;;17.80;99.90;;;;;;5037101;28;20468;-87
2022/10/27 11:58:05;;;;;;;7.00;5.10;;;17.90;99.90;;;;;;5031676;28;20399;-87
2022/10/27 12:06:12;;;;;;;6.17;5.60;;;17.90;99.90;;;;;;5021051;28;20483;-86
2022/10/27 12:09:32;;;;;;;;;;;;;;;;;;;;;
2022/10/27 12:12:10;;;;;;;11.23;5.37;;;17.80;99.90;;;;;;5015602;28;20551;-87
2022/10/27 12:15:03;;;;;;;10.70;7.50;;;17.80;99.90;;;;;;5022585;28;20459;-87
2022/10/27 12:21:13;;;;;;;;;;;;;;;;;;;;;
2022/10/27 12:31:12;;;;;;;5.37;4.83;;;18.10;99.90;;;;;;4882896;28;20499;-85
2022/10/27 12:34:06;;;;;;;7.53;4.60;;;18.20;99.90;;;;;;5026275;28;20463;-85
2022/10/27 13:53:41;;;;;;;5.10;4.60;;;18.40;99.90;;;;;;4931215;29;20444;-86
2022/10/27 14:35:32;;;;;;;9.90;4.90;;;;;;;;;;5081912;22;20497;-87
2022/10/27 14:37:59;;;;;;;9.27;5.37;;;;;;;;;;5060912;28;20445;-87
2022/10/27 14:40:35;;;;;;;11.53;5.03;;;18.10;99.90;;;;;;5059958;28;20450;-87
2022/10/27 14:43:02;;;;;;;8.13;5.77;;;18.10;99.90;;;;;;5067800;28;20637;-87
2022/10/27 14:45:31;;;;;;;10.67;4.30;;;18.30;99.90;;;;;;5078292;28;20461;-88
2022/10/27 14:48:01;;;;;;;5.83;4.63;;;18.00;99.90;;;;;;5080593;28;20505;-87
2022/10/27 14:50:31;;;;;;;7.30;5.67;;;18.00;99.90;;;;;;5066662;28;20468;-88
2022/10/27 14:53:01;;;;;;;9.50;7.90;;;17.90;99.90;;;;;;5068152;28;20477;-89
2022/10/27 14:55:31;;;;;;;11.40;9.47;;;17.90;99.90;;;;;;5078154;28;20449;-85
2022/10/27 14:57:58;;;;;;;12.77;9.50;;;;;;;;;;5078330;28;20529;-87
2022/10/27 15:00:30;;;;;;;7.27;5.47;;;17.90;99.90;;;;;;5075401;28;20962;-87
2022/10/27 15:03:00;;;;;;;7.10;5.40;;;17.90;99.90;;;;;;5078916;28;20442;-87
2022/10/27 15:05:29;;;;;;;11.70;8.20;;;17.70;99.90;;;;;;5077121;28;20465;-87
2022/10/27 15:07:58;;;;;;;7.63;5.50;;;17.90;99.90;;;;;;5078474;28;20481;-87
2022/10/27 15:10:26;;;;;;;5.70;4.80;;;17.80;99.90;;;;;;5074610;28;20468;-88